Airfield :
LOGIN :

Register | Disclaimer

   EN    FR    IT 

 










Legend :    VFR   Marginal VFR   IFR   Intensive IFR   Very Intensive IFR
Visi :
Ceiling :
>= 8 km
>= 3000ft
5 to 8 km
1000 to 3000 ft
1500m to 5 km
500 to 1000 ft
800 to 1500m
200 to 500 ft
< 800m
< 200 ft
Symbols :   Thunderstorms  Fog  Heavy snow  Heavy precipitations  Wind > 20 kt
SIGMETs :     Misc.  Thunderstorms  Icing  Turbulence  Mountain Waves  Volcanic Ashes






- Airport Elevation : 3 ft
- IATA code : DHR


EHKD - Den Helder De Kooy

CURRENT METAR :
  • 101155Z AUTO 05014KT 9999 BKN069 BKN075 OVC084 06/00 Q1015 BLU

EXPIRED METARs :
  • 101125Z AUTO 05013KT 020V080 9999 FEW073 OVC088 06/01 Q1015 BLU
  • 101055Z AUTO 06013KT 9999 FEW070 SCT086 OVC093 06/00 Q1016 BLU
  • 101025Z AUTO 07013KT 040V100 9999 FEW074 OVC083 06/00 Q1016 BLU
  • 100955Z AUTO 06013KT 9999 BKN077 OVC086 06/00 Q1016 BLU
  • 100925Z AUTO 06012KT 030V090 9999 SCT073 BKN078 OVC087 06/00 Q1016 BLU

TAF TAF EHKD
Valid from the 10 at 09:00 until the 10 at 21:00 UTC


100809Z 1009/1021 06012KT 9999 SCT030
BECMG 1013/1015 06017G27KT
TEMPO 1018/1020 4800 RA SCT008 BKN012
BECMG 1019/1021 3000 RADZ BKN005 OVC008



MET'MAP, your aeronautical weather chart ! - Copyright ORBIFLY December 2007 - Disclaimer

ORBIFLY MET'MAP TEAM :

Programming & Development : Alexandra Zaïnal
Concept & original design : Baudouin d'Aumeries
Assistance for programming : Marc-Olivier Méhu
Technical & hardware support : Manuel Goepfert

Contact : metmap@orbifly.com




SOURCES & CREDITS :

   NOAA